sensor_id;sensor_type;location;lat;lon;timestamp;P1;durP1;ratioP1;P2;durP2;ratioP2
21114;SDS011;10715;48.546;9.896;2022-09-06T00:01:42;1.43;;;1.30;;
21114;SDS011;10715;48.546;9.896;2022-09-06T00:04:08;3.27;;;2.23;;
21114;SDS011;10715;48.546;9.896;2022-09-06T00:06:34;1.40;;;1.10;;
21114;SDS011;10715;48.546;9.896;2022-09-06T00:09:00;1.93;;;1.60;;
21114;SDS011;10715;48.546;9.896;2022-09-06T00:11:26;1.97;;;1.43;;
21114;SDS011;10715;48.546;9.896;2022-09-06T00:13:52;1.90;;;1.77;;
21114;SDS011;10715;48.546;9.896;2022-09-06T00:16:20;1.90;;;1.60;;
21114;SDS011;10715;48.546;9.896;2022-09-06T00:18:47;1.50;;;1.40;;
21114;SDS011;10715;48.546;9.896;2022-09-06T00:21:15;1.97;;;1.80;;
21114;SDS011;10715;48.546;9.896;2022-09-06T00:23:49;4.50;;;1.80;;
21114;SDS011;10715;48.546;9.896;2022-09-06T00:26:15;1.40;;;1.30;;
21114;SDS011;10715;48.546;9.896;2022-09-06T00:28:42;4.43;;;1.50;;
21114;SDS011;10715;48.546;9.896;2022-09-06T00:31:08;2.80;;;1.57;;
21114;SDS011;10715;48.546;9.896;2022-09-06T00:33:35;1.60;;;1.50;;
21114;SDS011;10715;48.546;9.896;2022-09-06T00:36:01;2.27;;;2.03;;
21114;SDS011;10715;48.546;9.896;2022-09-06T00:38:27;2.03;;;1.83;;
21114;SDS011;10715;48.546;9.896;2022-09-06T00:40:53;2.00;;;1.80;;
21114;SDS011;10715;48.546;9.896;2022-09-06T00:43:19;2.33;;;1.93;;
21114;SDS011;10715;48.546;9.896;2022-09-06T00:45:44;3.17;;;1.67;;
21114;SDS011;10715;48.546;9.896;2022-09-06T00:48:10;2.30;;;1.53;;
21114;SDS011;10715;48.546;9.896;2022-09-06T00:50:36;3.40;;;1.57;;
21114;SDS011;10715;48.546;9.896;2022-09-06T00:53:02;1.80;;;1.70;;
21114;SDS011;10715;48.546;9.896;2022-09-06T00:55:28;3.20;;;2.57;;
21114;SDS011;10715;48.546;9.896;2022-09-06T00:57:54;2.13;;;1.77;;
21114;SDS011;10715;48.546;9.896;2022-09-06T01:00:20;1.90;;;1.20;;
21114;SDS011;10715;48.546;9.896;2022-09-06T01:02:46;1.97;;;1.80;;
21114;SDS011;10715;48.546;9.896;2022-09-06T01:05:13;3.10;;;2.10;;
21114;SDS011;10715;48.546;9.896;2022-09-06T01:07:57;2.10;;;1.73;;
21114;SDS011;10715;48.546;9.896;2022-09-06T01:11:04;5.37;;;1.90;;
21114;SDS011;10715;48.546;9.896;2022-09-06T01:30:22;2.10;;;1.87;;
21114;SDS011;10715;48.546;9.896;2022-09-06T01:32:54;2.33;;;1.90;;
21114;SDS011;10715;48.546;9.896;2022-09-06T01:35:42;2.20;;;2.03;;
21114;SDS011;10715;48.546;9.896;2022-09-06T01:38:19;2.33;;;2.13;;
21114;SDS011;10715;48.546;9.896;2022-09-06T01:40:45;4.00;;;2.23;;
21114;SDS011;10715;48.546;9.896;2022-09-06T01:43:11;3.53;;;2.40;;
21114;SDS011;10715;48.546;9.896;2022-09-06T01:48:50;2.73;;;2.33;;
21114;SDS011;10715;48.546;9.896;2022-09-06T01:57:02;2.80;;;1.90;;
21114;SDS011;10715;48.546;9.896;2022-09-06T02:08:16;3.93;;;2.70;;
21114;SDS011;10715;48.546;9.896;2022-09-06T02:11:00;4.30;;;2.50;;
21114;SDS011;10715;48.546;9.896;2022-09-06T02:13:36;1.83;;;1.73;;
21114;SDS011;10715;48.546;9.896;2022-09-06T02:16:05;4.93;;;2.20;;
21114;SDS011;10715;48.546;9.896;2022-09-06T02:18:39;2.70;;;2.33;;
21114;SDS011;10715;48.546;9.896;2022-09-06T02:21:14;2.10;;;2.00;;
21114;SDS011;10715;48.546;9.896;2022-09-06T02:23:42;3.80;;;3.17;;
21114;SDS011;10715;48.546;9.896;2022-09-06T02:26:11;2.83;;;2.63;;
21114;SDS011;10715;48.546;9.896;2022-09-06T02:28:42;2.93;;;2.53;;
21114;SDS011;10715;48.546;9.896;2022-09-06T02:31:51;3.00;;;2.70;;
21114;SDS011;10715;48.546;9.896;2022-09-06T02:34:02;2.93;;;2.73;;
21114;SDS011;10715;48.546;9.896;2022-09-06T02:36:29;4.93;;;4.10;;
21114;SDS011;10715;48.546;9.896;2022-09-06T02:38:58;2.43;;;2.33;;
21114;SDS011;10715;48.546;9.896;2022-09-06T02:41:24;3.07;;;2.87;;
21114;SDS011;10715;48.546;9.896;2022-09-06T02:43:52;2.90;;;2.70;;
21114;SDS011;10715;48.546;9.896;2022-09-06T02:46:17;3.47;;;2.73;;
21114;SDS011;10715;48.546;9.896;2022-09-06T02:48:43;3.50;;;3.30;;
21114;SDS011;10715;48.546;9.896;2022-09-06T02:51:09;3.40;;;3.10;;
21114;SDS011;10715;48.546;9.896;2022-09-06T02:53:34;3.43;;;3.23;;
21114;SDS011;10715;48.546;9.896;2022-09-06T02:56:01;3.17;;;2.87;;
21114;SDS011;10715;48.546;9.896;2022-09-06T02:58:27;3.03;;;2.43;;
21114;SDS011;10715;48.546;9.896;2022-09-06T03:00:53;2.90;;;2.60;;
21114;SDS011;10715;48.546;9.896;2022-09-06T03:03:19;4.33;;;3.60;;
21114;SDS011;10715;48.546;9.896;2022-09-06T03:05:46;2.67;;;2.47;;
21114;SDS011;10715;48.546;9.896;2022-09-06T03:08:14;2.67;;;2.47;;
21114;SDS011;10715;48.546;9.896;2022-09-06T03:10:40;2.90;;;2.70;;
21114;SDS011;10715;48.546;9.896;2022-09-06T03:13:06;3.20;;;2.63;;
21114;SDS011;10715;48.546;9.896;2022-09-06T03:15:32;2.83;;;2.63;;
21114;SDS011;10715;48.546;9.896;2022-09-06T03:17:58;4.10;;;3.80;;
21114;SDS011;10715;48.546;9.896;2022-09-06T03:20:24;3.90;;;3.20;;
21114;SDS011;10715;48.546;9.896;2022-09-06T03:22:50;3.10;;;2.80;;
21114;SDS011;10715;48.546;9.896;2022-09-06T03:25:15;4.03;;;3.73;;
21114;SDS011;10715;48.546;9.896;2022-09-06T03:27:42;4.33;;;3.10;;
21114;SDS011;10715;48.546;9.896;2022-09-06T03:30:08;10.70;;;3.87;;
21114;SDS011;10715;48.546;9.896;2022-09-06T03:32:34;4.30;;;4.00;;
21114;SDS011;10715;48.546;9.896;2022-09-06T03:35:00;5.10;;;3.63;;
21114;SDS011;10715;48.546;9.896;2022-09-06T03:37:26;4.77;;;3.07;;
21114;SDS011;10715;48.546;9.896;2022-09-06T03:39:52;5.77;;;2.70;;
21114;SDS011;10715;48.546;9.896;2022-09-06T03:42:18;4.17;;;3.87;;
21114;SDS011;10715;48.546;9.896;2022-09-06T03:44:44;4.77;;;4.47;;
21114;SDS011;10715;48.546;9.896;2022-09-06T03:47:09;5.47;;;5.00;;
21114;SDS011;10715;48.546;9.896;2022-09-06T03:49:35;8.90;;;8.03;;
21114;SDS011;10715;48.546;9.896;2022-09-06T03:52:01;11.93;;;8.03;;
21114;SDS011;10715;48.546;9.896;2022-09-06T03:54:27;5.70;;;5.30;;
21114;SDS011;10715;48.546;9.896;2022-09-06T03:56:53;8.03;;;7.30;;
21114;SDS011;10715;48.546;9.896;2022-09-06T03:59:19;6.23;;;5.73;;
21114;SDS011;10715;48.546;9.896;2022-09-06T04:01:45;5.43;;;5.00;;
21114;SDS011;10715;48.546;9.896;2022-09-06T04:04:10;5.13;;;4.77;;
21114;SDS011;10715;48.546;9.896;2022-09-06T04:06:36;4.80;;;4.50;;
21114;SDS011;10715;48.546;9.896;2022-09-06T04:09:02;4.67;;;4.37;;
21114;SDS011;10715;48.546;9.896;2022-09-06T04:11:28;4.90;;;4.43;;
21114;SDS011;10715;48.546;9.896;2022-09-06T04:13:53;5.83;;;5.40;;
21114;SDS011;10715;48.546;9.896;2022-09-06T04:16:19;3.80;;;3.40;;
21114;SDS011;10715;48.546;9.896;2022-09-06T04:18:45;5.40;;;5.10;;
21114;SDS011;10715;48.546;9.896;2022-09-06T04:21:11;4.30;;;3.90;;
21114;SDS011;10715;48.546;9.896;2022-09-06T04:23:36;3.77;;;3.53;;
21114;SDS011;10715;48.546;9.896;2022-09-06T04:26:02;7.20;;;5.03;;
21114;SDS011;10715;48.546;9.896;2022-09-06T04:28:28;6.97;;;5.23;;
21114;SDS011;10715;48.546;9.896;2022-09-06T04:30:58;5.53;;;5.13;;
21114;SDS011;10715;48.546;9.896;2022-09-06T04:33:25;6.90;;;6.30;;
21114;SDS011;10715;48.546;9.896;2022-09-06T04:35:55;6.07;;;5.43;;
21114;SDS011;10715;48.546;9.896;2022-09-06T04:38:26;6.93;;;6.33;;
21114;SDS011;10715;48.546;9.896;2022-09-06T04:40:53;6.13;;;5.50;;
21114;SDS011;10715;48.546;9.896;2022-09-06T04:43:22;7.60;;;5.90;;
21114;SDS011;10715;48.546;9.896;2022-09-06T04:45:48;8.93;;;8.03;;
21114;SDS011;10715;48.546;9.896;2022-09-06T04:48:14;9.50;;;6.43;;
21114;SDS011;10715;48.546;9.896;2022-09-06T04:50:40;6.27;;;5.70;;
21114;SDS011;10715;48.546;9.896;2022-09-06T04:53:06;6.73;;;5.70;;
21114;SDS011;10715;48.546;9.896;2022-09-06T04:55:32;5.77;;;5.27;;
21114;SDS011;10715;48.546;9.896;2022-09-06T04:57:59;6.57;;;5.70;;
21114;SDS011;10715;48.546;9.896;2022-09-06T05:00:29;10.70;;;7.80;;
21114;SDS011;10715;48.546;9.896;2022-09-06T05:02:55;6.07;;;4.93;;
21114;SDS011;10715;48.546;9.896;2022-09-06T05:05:22;5.23;;;4.83;;
21114;SDS011;10715;48.546;9.896;2022-09-06T05:07:51;8.60;;;5.60;;
21114;SDS011;10715;48.546;9.896;2022-09-06T05:10:17;6.30;;;5.73;;
21114;SDS011;10715;48.546;9.896;2022-09-06T05:12:46;5.63;;;5.00;;
21114;SDS011;10715;48.546;9.896;2022-09-06T05:15:13;6.03;;;5.60;;
21114;SDS011;10715;48.546;9.896;2022-09-06T05:17:39;7.13;;;6.43;;
21114;SDS011;10715;48.546;9.896;2022-09-06T05:20:05;8.33;;;7.33;;
21114;SDS011;10715;48.546;9.896;2022-09-06T05:22:31;5.60;;;4.87;;
21114;SDS011;10715;48.546;9.896;2022-09-06T05:24:57;8.60;;;6.27;;
21114;SDS011;10715;48.546;9.896;2022-09-06T05:27:23;7.33;;;6.60;;
21114;SDS011;10715;48.546;9.896;2022-09-06T05:29:48;7.93;;;7.20;;
21114;SDS011;10715;48.546;9.896;2022-09-06T05:32:14;11.63;;;8.00;;
21114;SDS011;10715;48.546;9.896;2022-09-06T05:34:40;9.80;;;7.50;;
21114;SDS011;10715;48.546;9.896;2022-09-06T05:37:05;15.30;;;6.90;;
21114;SDS011;10715;48.546;9.896;2022-09-06T05:39:31;8.70;;;7.20;;
21114;SDS011;10715;48.546;9.896;2022-09-06T05:41:57;7.70;;;6.97;;
21114;SDS011;10715;48.546;9.896;2022-09-06T05:44:23;7.27;;;5.90;;
21114;SDS011;10715;48.546;9.896;2022-09-06T05:46:48;7.73;;;6.90;;
21114;SDS011;10715;48.546;9.896;2022-09-06T05:49:14;11.00;;;5.80;;
21114;SDS011;10715;48.546;9.896;2022-09-06T05:51:40;8.57;;;7.43;;
21114;SDS011;10715;48.546;9.896;2022-09-06T05:54:06;7.40;;;6.77;;
21114;SDS011;10715;48.546;9.896;2022-09-06T05:56:34;7.30;;;6.47;;
21114;SDS011;10715;48.546;9.896;2022-09-06T05:59:00;6.70;;;5.23;;
21114;SDS011;10715;48.546;9.896;2022-09-06T06:01:26;5.70;;;5.20;;
21114;SDS011;10715;48.546;9.896;2022-09-06T06:03:58;7.03;;;5.97;;
21114;SDS011;10715;48.546;9.896;2022-09-06T06:06:27;6.17;;;5.53;;
21114;SDS011;10715;48.546;9.896;2022-09-06T06:08:54;6.67;;;5.13;;
21114;SDS011;10715;48.546;9.896;2022-09-06T06:11:20;7.20;;;6.43;;
21114;SDS011;10715;48.546;9.896;2022-09-06T06:13:46;9.40;;;5.03;;
21114;SDS011;10715;48.546;9.896;2022-09-06T06:16:13;7.20;;;4.83;;
21114;SDS011;10715;48.546;9.896;2022-09-06T06:18:40;5.87;;;5.37;;
21114;SDS011;10715;48.546;9.896;2022-09-06T06:21:16;7.10;;;5.00;;
21114;SDS011;10715;48.546;9.896;2022-09-06T06:23:45;5.03;;;4.60;;
21114;SDS011;10715;48.546;9.896;2022-09-06T06:26:14;7.27;;;4.57;;
21114;SDS011;10715;48.546;9.896;2022-09-06T06:28:40;7.87;;;4.90;;
21114;SDS011;10715;48.546;9.896;2022-09-06T06:31:07;5.87;;;5.30;;
21114;SDS011;10715;48.546;9.896;2022-09-06T06:33:34;4.63;;;4.23;;
21114;SDS011;10715;48.546;9.896;2022-09-06T06:36:15;5.37;;;4.83;;
21114;SDS011;10715;48.546;9.896;2022-09-06T06:38:43;7.30;;;6.60;;
21114;SDS011;10715;48.546;9.896;2022-09-06T06:41:14;6.40;;;5.53;;
21114;SDS011;10715;48.546;9.896;2022-09-06T06:43:42;4.63;;;4.33;;
21114;SDS011;10715;48.546;9.896;2022-09-06T06:46:08;7.07;;;5.30;;
21114;SDS011;10715;48.546;9.896;2022-09-06T06:48:39;5.50;;;5.10;;
21114;SDS011;10715;48.546;9.896;2022-09-06T06:51:06;6.83;;;6.20;;
21114;SDS011;10715;48.546;9.896;2022-09-06T06:53:32;7.30;;;5.53;;
21114;SDS011;10715;48.546;9.896;2022-09-06T06:55:59;9.10;;;7.13;;
21114;SDS011;10715;48.546;9.896;2022-09-06T06:58:25;5.10;;;4.60;;
21114;SDS011;10715;48.546;9.896;2022-09-06T07:00:51;6.53;;;4.83;;
21114;SDS011;10715;48.546;9.896;2022-09-06T07:03:17;3.93;;;3.63;;
21114;SDS011;10715;48.546;9.896;2022-09-06T07:05:43;8.40;;;4.00;;
21114;SDS011;10715;48.546;9.896;2022-09-06T07:08:10;7.90;;;3.63;;
21114;SDS011;10715;48.546;9.896;2022-09-06T07:10:36;4.37;;;4.07;;
21114;SDS011;10715;48.546;9.896;2022-09-06T07:13:02;3.70;;;3.40;;
21114;SDS011;10715;48.546;9.896;2022-09-06T07:15:28;8.73;;;4.30;;
21114;SDS011;10715;48.546;9.896;2022-09-06T07:17:55;3.60;;;3.40;;
21114;SDS011;10715;48.546;9.896;2022-09-06T07:20:21;4.97;;;4.27;;
21114;SDS011;10715;48.546;9.896;2022-09-06T07:22:59;4.80;;;3.67;;
21114;SDS011;10715;48.546;9.896;2022-09-06T07:25:26;3.70;;;3.50;;
21114;SDS011;10715;48.546;9.896;2022-09-06T07:27:56;4.63;;;4.33;;
21114;SDS011;10715;48.546;9.896;2022-09-06T07:30:32;3.23;;;3.00;;
21114;SDS011;10715;48.546;9.896;2022-09-06T07:33:01;4.30;;;4.00;;
21114;SDS011;10715;48.546;9.896;2022-09-06T07:35:29;5.13;;;4.47;;
21114;SDS011;10715;48.546;9.896;2022-09-06T07:37:56;3.93;;;2.70;;
21114;SDS011;10715;48.546;9.896;2022-09-06T07:40:24;2.07;;;1.97;;
21114;SDS011;10715;48.546;9.896;2022-09-06T07:42:51;7.50;;;2.93;;
21114;SDS011;10715;48.546;9.896;2022-09-06T07:45:17;3.30;;;3.00;;
21114;SDS011;10715;48.546;9.896;2022-09-06T07:47:43;2.60;;;2.40;;
21114;SDS011;10715;48.546;9.896;2022-09-06T07:50:09;3.53;;;3.13;;
21114;SDS011;10715;48.546;9.896;2022-09-06T07:52:35;5.50;;;2.80;;
21114;SDS011;10715;48.546;9.896;2022-09-06T07:55:01;3.93;;;3.20;;
21114;SDS011;10715;48.546;9.896;2022-09-06T07:57:27;5.03;;;3.60;;
21114;SDS011;10715;48.546;9.896;2022-09-06T07:59:53;4.37;;;3.97;;
21114;SDS011;10715;48.546;9.896;2022-09-06T08:02:19;3.10;;;2.90;;
21114;SDS011;10715;48.546;9.896;2022-09-06T08:04:45;2.90;;;2.70;;
21114;SDS011;10715;48.546;9.896;2022-09-06T08:07:10;7.87;;;2.60;;
21114;SDS011;10715;48.546;9.896;2022-09-06T08:09:36;3.17;;;2.97;;
21114;SDS011;10715;48.546;9.896;2022-09-06T08:12:02;3.37;;;3.17;;
21114;SDS011;10715;48.546;9.896;2022-09-06T08:14:34;3.30;;;2.60;;
21114;SDS011;10715;48.546;9.896;2022-09-06T08:17:00;3.30;;;3.10;;
21114;SDS011;10715;48.546;9.896;2022-09-06T08:19:26;5.90;;;3.60;;
21114;SDS011;10715;48.546;9.896;2022-09-06T08:21:53;3.53;;;2.60;;
21114;SDS011;10715;48.546;9.896;2022-09-06T08:24:19;3.20;;;2.30;;
21114;SDS011;10715;48.546;9.896;2022-09-06T08:26:45;3.00;;;2.80;;
21114;SDS011;10715;48.546;9.896;2022-09-06T08:29:11;3.30;;;3.00;;
21114;SDS011;10715;48.546;9.896;2022-09-06T08:31:38;3.13;;;2.93;;
21114;SDS011;10715;48.546;9.896;2022-09-06T08:34:05;3.60;;;3.33;;
21114;SDS011;10715;48.546;9.896;2022-09-06T08:36:32;3.77;;;2.37;;
21114;SDS011;10715;48.546;9.896;2022-09-06T08:38:59;2.37;;;2.23;;
21114;SDS011;10715;48.546;9.896;2022-09-06T08:42:00;3.50;;;2.20;;
21114;SDS011;10715;48.546;9.896;2022-09-06T08:46:59;2.33;;;2.13;;
21114;SDS011;10715;48.546;9.896;2022-09-06T08:49:46;1.70;;;1.60;;
21114;SDS011;10715;48.546;9.896;2022-09-06T09:00:34;2.50;;;1.97;;
21114;SDS011;10715;48.546;9.896;2022-09-06T09:05:36;2.50;;;2.00;;
21114;SDS011;10715;48.546;9.896;2022-09-06T09:08:11;3.17;;;2.87;;
21114;SDS011;10715;48.546;9.896;2022-09-06T09:10:58;4.10;;;2.47;;
21114;SDS011;10715;48.546;9.896;2022-09-06T09:16:11;3.60;;;2.43;;
21114;SDS011;10715;48.546;9.896;2022-09-06T09:18:39;3.33;;;2.03;;
21114;SDS011;10715;48.546;9.896;2022-09-06T09:21:08;2.10;;;1.30;;
21114;SDS011;10715;48.546;9.896;2022-09-06T09:23:34;1.63;;;1.30;;
21114;SDS011;10715;48.546;9.896;2022-09-06T09:26:08;2.60;;;1.77;;
21114;SDS011;10715;48.546;9.896;2022-09-06T09:28:36;1.70;;;1.60;;
21114;SDS011;10715;48.546;9.896;2022-09-06T09:31:02;7.13;;;2.03;;
21114;SDS011;10715;48.546;9.896;2022-09-06T09:33:29;3.90;;;1.70;;
21114;SDS011;10715;48.546;9.896;2022-09-06T09:36:10;4.33;;;1.90;;
21114;SDS011;10715;48.546;9.896;2022-09-06T09:38:44;2.80;;;2.23;;
21114;SDS011;10715;48.546;9.896;2022-09-06T09:41:32;4.93;;;1.77;;
21114;SDS011;10715;48.546;9.896;2022-09-06T09:44:09;2.33;;;1.50;;
21114;SDS011;10715;48.546;9.896;2022-09-06T09:46:41;4.00;;;1.40;;
21114;SDS011;10715;48.546;9.896;2022-09-06T09:49:09;3.30;;;1.90;;
21114;SDS011;10715;48.546;9.896;2022-09-06T09:51:40;4.80;;;1.63;;
21114;SDS011;10715;48.546;9.896;2022-09-06T09:54:08;4.73;;;1.70;;
21114;SDS011;10715;48.546;9.896;2022-09-06T09:56:49;1.87;;;1.77;;
21114;SDS011;10715;48.546;9.896;2022-09-06T10:01:57;4.60;;;1.50;;
21114;SDS011;10715;48.546;9.896;2022-09-06T10:04:42;2.07;;;1.40;;
21114;SDS011;10715;48.546;9.896;2022-09-06T10:07:13;1.60;;;1.37;;
21114;SDS011;10715;48.546;9.896;2022-09-06T10:10:05;2.43;;;1.70;;
21114;SDS011;10715;48.546;9.896;2022-09-06T10:12:37;3.23;;;2.10;;
21114;SDS011;10715;48.546;9.896;2022-09-06T10:15:04;1.60;;;1.23;;
21114;SDS011;10715;48.546;9.896;2022-09-06T10:17:33;4.10;;;1.87;;
21114;SDS011;10715;48.546;9.896;2022-09-06T10:20:00;8.30;;;2.20;;
21114;SDS011;10715;48.546;9.896;2022-09-06T10:22:34;2.70;;;1.50;;
21114;SDS011;10715;48.546;9.896;2022-09-06T10:25:18;2.27;;;1.60;;
21114;SDS011;10715;48.546;9.896;2022-09-06T10:31:01;1.27;;;1.17;;
21114;SDS011;10715;48.546;9.896;2022-09-06T10:33:57;3.43;;;1.77;;
21114;SDS011;10715;48.546;9.896;2022-09-06T10:36:48;2.20;;;1.77;;
21114;SDS011;10715;48.546;9.896;2022-09-06T10:47:53;5.67;;;1.87;;
21114;SDS011;10715;48.546;9.896;2022-09-06T10:50:20;2.17;;;2.00;;
21114;SDS011;10715;48.546;9.896;2022-09-06T10:52:51;3.77;;;2.03;;
21114;SDS011;10715;48.546;9.896;2022-09-06T10:55:18;4.57;;;1.60;;
21114;SDS011;10715;48.546;9.896;2022-09-06T10:57:46;4.37;;;2.20;;
21114;SDS011;10715;48.546;9.896;2022-09-06T11:00:15;5.27;;;1.50;;
21114;SDS011;10715;48.546;9.896;2022-09-06T11:05:35;2.43;;;2.17;;
21114;SDS011;10715;48.546;9.896;2022-09-06T11:08:15;3.90;;;1.73;;
21114;SDS011;10715;48.546;9.896;2022-09-06T11:10:54;2.90;;;1.30;;
21114;SDS011;10715;48.546;9.896;2022-09-06T11:13:26;2.33;;;1.57;;
21114;SDS011;10715;48.546;9.896;2022-09-06T11:16:14;2.80;;;1.70;;
21114;SDS011;10715;48.546;9.896;2022-09-06T11:18:56;1.57;;;1.47;;
21114;SDS011;10715;48.546;9.896;2022-09-06T11:29:56;3.87;;;2.73;;
21114;SDS011;10715;48.546;9.896;2022-09-06T11:32:33;3.10;;;1.70;;
21114;SDS011;10715;48.546;9.896;2022-09-06T11:35:07;1.60;;;1.50;;
21114;SDS011;10715;48.546;9.896;2022-09-06T11:37:44;3.53;;;1.70;;
21114;SDS011;10715;48.546;9.896;2022-09-06T11:45:18;1.90;;;1.37;;
21114;SDS011;10715;48.546;9.896;2022-09-06T11:53:23;5.40;;;1.70;;
21114;SDS011;10715;48.546;9.896;2022-09-06T11:58:31;3.70;;;1.37;;
21114;SDS011;10715;48.546;9.896;2022-09-06T12:08:37;4.73;;;2.07;;
21114;SDS011;10715;48.546;9.896;2022-09-06T12:11:04;2.00;;;1.30;;
21114;SDS011;10715;48.546;9.896;2022-09-06T12:16:16;4.60;;;2.50;;
21114;SDS011;10715;48.546;9.896;2022-09-06T12:32:20;4.37;;;1.90;;
21114;SDS011;10715;48.546;9.896;2022-09-06T12:34:50;3.97;;;1.50;;
21114;SDS011;10715;48.546;9.896;2022-09-06T12:37:29;3.37;;;1.70;;
21114;SDS011;10715;48.546;9.896;2022-09-06T12:39:56;5.43;;;2.10;;
21114;SDS011;10715;48.546;9.896;2022-09-06T12:42:23;3.50;;;1.80;;
21114;SDS011;10715;48.546;9.896;2022-09-06T12:44:50;4.63;;;2.00;;
21114;SDS011;10715;48.546;9.896;2022-09-06T12:47:25;4.67;;;1.60;;
21114;SDS011;10715;48.546;9.896;2022-09-06T12:52:46;3.73;;;1.87;;
21114;SDS011;10715;48.546;9.896;2022-09-06T12:57:57;4.23;;;2.27;;
21114;SDS011;10715;48.546;9.896;2022-09-06T13:00:30;4.13;;;1.70;;
21114;SDS011;10715;48.546;9.896;2022-09-06T13:05:54;2.70;;;1.73;;
21114;SDS011;10715;48.546;9.896;2022-09-06T13:08:25;3.93;;;2.10;;
21114;SDS011;10715;48.546;9.896;2022-09-06T13:11:00;4.07;;;2.30;;
21114;SDS011;10715;48.546;9.896;2022-09-06T13:13:28;4.97;;;2.20;;
21114;SDS011;10715;48.546;9.896;2022-09-06T13:15:54;4.30;;;2.53;;
21114;SDS011;10715;48.546;9.896;2022-09-06T13:18:38;7.33;;;3.10;;
21114;SDS011;10715;48.546;9.896;2022-09-06T13:21:05;2.57;;;1.70;;
21114;SDS011;10715;48.546;9.896;2022-09-06T13:23:40;9.03;;;1.87;;
21114;SDS011;10715;48.546;9.896;2022-09-06T13:26:06;8.37;;;1.90;;
21114;SDS011;10715;48.546;9.896;2022-09-06T13:28:32;3.50;;;2.23;;
21114;SDS011;10715;48.546;9.896;2022-09-06T13:33:30;3.60;;;2.27;;
21114;SDS011;10715;48.546;9.896;2022-09-06T13:36:07;4.00;;;2.50;;
21114;SDS011;10715;48.546;9.896;2022-09-06T13:38:43;3.67;;;1.63;;
21114;SDS011;10715;48.546;9.896;2022-09-06T13:46:22;3.33;;;2.07;;
21114;SDS011;10715;48.546;9.896;2022-09-06T13:48:48;6.63;;;2.97;;
21114;SDS011;10715;48.546;9.896;2022-09-06T13:51:14;4.63;;;2.73;;
21114;SDS011;10715;48.546;9.896;2022-09-06T13:53:42;2.57;;;1.50;;
21114;SDS011;10715;48.546;9.896;2022-09-06T13:56:07;2.87;;;2.10;;
21114;SDS011;10715;48.546;9.896;2022-09-06T13:58:33;4.40;;;1.93;;
21114;SDS011;10715;48.546;9.896;2022-09-06T14:01:00;5.90;;;2.23;;
21114;SDS011;10715;48.546;9.896;2022-09-06T14:03:26;6.40;;;2.83;;
21114;SDS011;10715;48.546;9.896;2022-09-06T14:05:55;9.40;;;2.77;;
21114;SDS011;10715;48.546;9.896;2022-09-06T14:08:21;3.30;;;1.67;;
21114;SDS011;10715;48.546;9.896;2022-09-06T14:10:47;2.97;;;2.10;;
21114;SDS011;10715;48.546;9.896;2022-09-06T14:13:14;5.73;;;2.37;;
21114;SDS011;10715;48.546;9.896;2022-09-06T14:15:40;2.23;;;2.07;;
21114;SDS011;10715;48.546;9.896;2022-09-06T14:18:07;6.83;;;2.80;;
21114;SDS011;10715;48.546;9.896;2022-09-06T14:20:33;2.80;;;2.20;;
21114;SDS011;10715;48.546;9.896;2022-09-06T14:22:59;3.10;;;1.90;;
21114;SDS011;10715;48.546;9.896;2022-09-06T14:25:24;2.93;;;2.10;;
21114;SDS011;10715;48.546;9.896;2022-09-06T14:27:50;13.97;;;3.07;;
21114;SDS011;10715;48.546;9.896;2022-09-06T14:30:16;3.90;;;2.80;;
21114;SDS011;10715;48.546;9.896;2022-09-06T14:32:42;3.17;;;2.97;;
21114;SDS011;10715;48.546;9.896;2022-09-06T14:35:07;5.03;;;2.40;;
21114;SDS011;10715;48.546;9.896;2022-09-06T14:37:33;2.30;;;1.73;;
21114;SDS011;10715;48.546;9.896;2022-09-06T14:42:53;2.57;;;2.37;;
21114;SDS011;10715;48.546;9.896;2022-09-06T14:45:19;5.57;;;2.73;;
21114;SDS011;10715;48.546;9.896;2022-09-06T14:47:45;2.40;;;1.77;;
21114;SDS011;10715;48.546;9.896;2022-09-06T14:50:11;6.60;;;2.13;;
21114;SDS011;10715;48.546;9.896;2022-09-06T14:52:37;2.13;;;1.47;;
21114;SDS011;10715;48.546;9.896;2022-09-06T14:55:02;5.00;;;1.90;;
21114;SDS011;10715;48.546;9.896;2022-09-06T14:57:28;1.90;;;1.80;;
21114;SDS011;10715;48.546;9.896;2022-09-06T14:59:54;4.10;;;1.70;;
21114;SDS011;10715;48.546;9.896;2022-09-06T15:02:20;3.77;;;2.20;;
21114;SDS011;10715;48.546;9.896;2022-09-06T15:04:46;4.17;;;2.33;;
21114;SDS011;10715;48.546;9.896;2022-09-06T15:07:12;3.30;;;2.20;;
21114;SDS011;10715;48.546;9.896;2022-09-06T15:09:37;2.70;;;2.03;;
21114;SDS011;10715;48.546;9.896;2022-09-06T15:12:03;7.40;;;3.20;;
21114;SDS011;10715;48.546;9.896;2022-09-06T15:14:29;4.67;;;2.57;;
21114;SDS011;10715;48.546;9.896;2022-09-06T15:16:56;3.73;;;2.70;;
21114;SDS011;10715;48.546;9.896;2022-09-06T15:19:26;2.63;;;2.13;;
21114;SDS011;10715;48.546;9.896;2022-09-06T15:21:54;3.00;;;2.00;;
21114;SDS011;10715;48.546;9.896;2022-09-06T15:24:22;2.30;;;2.20;;
21114;SDS011;10715;48.546;9.896;2022-09-06T15:26:48;8.23;;;2.50;;
21114;SDS011;10715;48.546;9.896;2022-09-06T15:29:14;3.10;;;2.80;;
21114;SDS011;10715;48.546;9.896;2022-09-06T15:31:40;3.50;;;1.73;;
21114;SDS011;10715;48.546;9.896;2022-09-06T15:34:07;3.63;;;2.37;;
21114;SDS011;10715;48.546;9.896;2022-09-06T15:36:34;8.43;;;2.70;;
21114;SDS011;10715;48.546;9.896;2022-09-06T15:39:01;5.23;;;1.97;;
21114;SDS011;10715;48.546;9.896;2022-09-06T15:41:29;3.70;;;2.50;;
21114;SDS011;10715;48.546;9.896;2022-09-06T15:43:58;5.20;;;2.50;;
21114;SDS011;10715;48.546;9.896;2022-09-06T15:49:00;5.63;;;2.73;;
21114;SDS011;10715;48.546;9.896;2022-09-06T15:51:29;4.60;;;2.10;;
21114;SDS011;10715;48.546;9.896;2022-09-06T15:53:59;5.00;;;3.33;;
21114;SDS011;10715;48.546;9.896;2022-09-06T15:56:25;3.00;;;2.40;;
21114;SDS011;10715;48.546;9.896;2022-09-06T15:58:51;4.93;;;3.03;;
21114;SDS011;10715;48.546;9.896;2022-09-06T16:01:17;8.13;;;2.07;;
21114;SDS011;10715;48.546;9.896;2022-09-06T16:03:45;4.93;;;2.40;;
21114;SDS011;10715;48.546;9.896;2022-09-06T16:06:23;3.97;;;3.60;;
21114;SDS011;10715;48.546;9.896;2022-09-06T16:08:51;8.00;;;3.80;;
21114;SDS011;10715;48.546;9.896;2022-09-06T16:11:22;4.90;;;2.87;;
21114;SDS011;10715;48.546;9.896;2022-09-06T16:13:48;3.23;;;2.30;;
21114;SDS011;10715;48.546;9.896;2022-09-06T16:16:14;3.23;;;3.03;;
21114;SDS011;10715;48.546;9.896;2022-09-06T16:18:41;5.17;;;2.93;;
21114;SDS011;10715;48.546;9.896;2022-09-06T16:21:10;8.53;;;3.10;;
21114;SDS011;10715;48.546;9.896;2022-09-06T16:23:38;16.03;;;3.30;;
21114;SDS011;10715;48.546;9.896;2022-09-06T16:26:05;4.30;;;2.40;;
21114;SDS011;10715;48.546;9.896;2022-09-06T16:28:33;6.00;;;2.80;;
21114;SDS011;10715;48.546;9.896;2022-09-06T16:31:00;3.83;;;2.77;;
21114;SDS011;10715;48.546;9.896;2022-09-06T16:33:27;7.50;;;3.33;;
21114;SDS011;10715;48.546;9.896;2022-09-06T16:35:54;6.83;;;2.13;;
21114;SDS011;10715;48.546;9.896;2022-09-06T16:38:22;6.10;;;3.17;;
21114;SDS011;10715;48.546;9.896;2022-09-06T16:40:48;3.93;;;3.30;;
21114;SDS011;10715;48.546;9.896;2022-09-06T16:43:14;7.43;;;4.40;;
21114;SDS011;10715;48.546;9.896;2022-09-06T16:45:40;3.30;;;3.10;;
21114;SDS011;10715;48.546;9.896;2022-09-06T16:48:06;7.03;;;2.70;;
21114;SDS011;10715;48.546;9.896;2022-09-06T16:50:32;7.00;;;2.63;;
21114;SDS011;10715;48.546;9.896;2022-09-06T16:52:58;4.43;;;2.80;;
21114;SDS011;10715;48.546;9.896;2022-09-06T16:55:24;5.60;;;2.77;;
21114;SDS011;10715;48.546;9.896;2022-09-06T16:57:49;4.30;;;3.03;;
21114;SDS011;10715;48.546;9.896;2022-09-06T17:00:15;6.17;;;3.47;;
21114;SDS011;10715;48.546;9.896;2022-09-06T17:02:41;7.10;;;3.20;;
21114;SDS011;10715;48.546;9.896;2022-09-06T17:05:10;4.63;;;4.07;;
21114;SDS011;10715;48.546;9.896;2022-09-06T17:07:38;5.90;;;2.87;;
21114;SDS011;10715;48.546;9.896;2022-09-06T17:10:04;6.90;;;2.80;;
21114;SDS011;10715;48.546;9.896;2022-09-06T17:12:30;10.60;;;3.97;;